sensor_id;sensor_type;location;lat;lon;timestamp;P1;durP1;ratioP1;P2;durP2;ratioP2
15218;SDS011;15623;53.986;11.676;2023-03-09T00:00:48;16.87;;;11.53;;
15218;SDS011;15623;53.986;11.676;2023-03-09T00:03:16;19.63;;;10.77;;
15218;SDS011;15623;53.986;11.676;2023-03-09T00:05:52;15.80;;;10.43;;
15218;SDS011;15623;53.986;11.676;2023-03-09T00:08:27;15.83;;;10.90;;
15218;SDS011;15623;53.986;11.676;2023-03-09T00:10:58;19.93;;;11.20;;
15218;SDS011;15623;53.986;11.676;2023-03-09T00:13:26;17.53;;;10.50;;
15218;SDS011;15623;53.986;11.676;2023-03-09T00:15:55;17.17;;;10.37;;
15218;SDS011;15623;53.986;11.676;2023-03-09T00:18:32;16.70;;;10.77;;
15218;SDS011;15623;53.986;11.676;2023-03-09T00:21:01;15.80;;;10.73;;
15218;SDS011;15623;53.986;11.676;2023-03-09T00:26:08;15.00;;;10.13;;
15218;SDS011;15623;53.986;11.676;2023-03-09T00:28:46;21.10;;;11.10;;
15218;SDS011;15623;53.986;11.676;2023-03-09T00:31:13;14.47;;;9.97;;
15218;SDS011;15623;53.986;11.676;2023-03-09T00:33:46;17.30;;;10.03;;
15218;SDS011;15623;53.986;11.676;2023-03-09T00:36:21;12.13;;;9.63;;
15218;SDS011;15623;53.986;11.676;2023-03-09T00:38:49;13.20;;;9.47;;
15218;SDS011;15623;53.986;11.676;2023-03-09T00:41:18;17.23;;;9.37;;
15218;SDS011;15623;53.986;11.676;2023-03-09T00:43:47;14.80;;;9.67;;
15218;SDS011;15623;53.986;11.676;2023-03-09T00:46:31;12.73;;;9.73;;
15218;SDS011;15623;53.986;11.676;2023-03-09T00:49:03;14.20;;;8.83;;
15218;SDS011;15623;53.986;11.676;2023-03-09T00:51:33;15.97;;;9.63;;
15218;SDS011;15623;53.986;11.676;2023-03-09T00:56:44;12.80;;;9.53;;
15218;SDS011;15623;53.986;11.676;2023-03-09T00:59:12;13.80;;;9.47;;
15218;SDS011;15623;53.986;11.676;2023-03-09T01:01:40;16.57;;;9.93;;
15218;SDS011;15623;53.986;11.676;2023-03-09T01:04:15;15.07;;;9.33;;
15218;SDS011;15623;53.986;11.676;2023-03-09T01:06:44;11.73;;;8.70;;
15218;SDS011;15623;53.986;11.676;2023-03-09T01:09:18;13.23;;;8.60;;
15218;SDS011;15623;53.986;11.676;2023-03-09T01:11:48;11.90;;;8.53;;
15218;SDS011;15623;53.986;11.676;2023-03-09T01:14:16;13.27;;;8.37;;
15218;SDS011;15623;53.986;11.676;2023-03-09T01:16:45;10.93;;;8.30;;
15218;SDS011;15623;53.986;11.676;2023-03-09T01:19:13;11.47;;;8.43;;
15218;SDS011;15623;53.986;11.676;2023-03-09T01:21:41;14.37;;;8.50;;
15218;SDS011;15623;53.986;11.676;2023-03-09T01:24:12;11.00;;;7.53;;
15218;SDS011;15623;53.986;11.676;2023-03-09T01:29:11;13.27;;;8.57;;
15218;SDS011;15623;53.986;11.676;2023-03-09T01:31:43;10.10;;;7.80;;
15218;SDS011;15623;53.986;11.676;2023-03-09T01:34:11;9.60;;;7.70;;
15218;SDS011;15623;53.986;11.676;2023-03-09T01:36:39;12.10;;;8.90;;
15218;SDS011;15623;53.986;11.676;2023-03-09T01:39:06;11.03;;;8.20;;
15218;SDS011;15623;53.986;11.676;2023-03-09T01:41:41;11.90;;;8.60;;
15218;SDS011;15623;53.986;11.676;2023-03-09T01:44:09;10.77;;;8.53;;
15218;SDS011;15623;53.986;11.676;2023-03-09T01:52:01;17.60;;;8.23;;
15218;SDS011;15623;53.986;11.676;2023-03-09T01:54:32;13.67;;;8.70;;
15218;SDS011;15623;53.986;11.676;2023-03-09T01:57:09;12.50;;;8.23;;
15218;SDS011;15623;53.986;11.676;2023-03-09T01:59:46;11.70;;;8.30;;
15218;SDS011;15623;53.986;11.676;2023-03-09T02:02:16;11.73;;;7.80;;
15218;SDS011;15623;53.986;11.676;2023-03-09T02:04:46;10.20;;;8.17;;
15218;SDS011;15623;53.986;11.676;2023-03-09T02:07:21;13.40;;;8.33;;
15218;SDS011;15623;53.986;11.676;2023-03-09T02:09:52;9.90;;;8.00;;
15218;SDS011;15623;53.986;11.676;2023-03-09T02:12:22;12.27;;;7.80;;
15218;SDS011;15623;53.986;11.676;2023-03-09T02:14:58;12.87;;;8.60;;
15218;SDS011;15623;53.986;11.676;2023-03-09T02:17:30;10.97;;;7.57;;
15218;SDS011;15623;53.986;11.676;2023-03-09T02:20:07;14.97;;;8.30;;
15218;SDS011;15623;53.986;11.676;2023-03-09T02:22:45;13.63;;;8.67;;
15218;SDS011;15623;53.986;11.676;2023-03-09T02:25:26;15.23;;;9.07;;
15218;SDS011;15623;53.986;11.676;2023-03-09T02:28:07;11.70;;;8.60;;
15218;SDS011;15623;53.986;11.676;2023-03-09T02:30:37;15.83;;;9.20;;
15218;SDS011;15623;53.986;11.676;2023-03-09T02:33:08;11.93;;;8.97;;
15218;SDS011;15623;53.986;11.676;2023-03-09T02:38:09;13.00;;;8.97;;
15218;SDS011;15623;53.986;11.676;2023-03-09T02:40:45;13.37;;;8.30;;
15218;SDS011;15623;53.986;11.676;2023-03-09T02:43:19;14.43;;;8.83;;
15218;SDS011;15623;53.986;11.676;2023-03-09T02:45:49;13.37;;;8.70;;
15218;SDS011;15623;53.986;11.676;2023-03-09T02:48:16;12.47;;;8.77;;
15218;SDS011;15623;53.986;11.676;2023-03-09T02:50:46;12.50;;;8.83;;
15218;SDS011;15623;53.986;11.676;2023-03-09T02:55:44;11.97;;;9.00;;
15218;SDS011;15623;53.986;11.676;2023-03-09T02:58:16;15.13;;;8.93;;
15218;SDS011;15623;53.986;11.676;2023-03-09T03:00:50;14.27;;;9.40;;
15218;SDS011;15623;53.986;11.676;2023-03-09T03:03:35;15.20;;;8.73;;
15218;SDS011;15623;53.986;11.676;2023-03-09T03:06:05;15.03;;;9.73;;
15218;SDS011;15623;53.986;11.676;2023-03-09T03:08:35;14.90;;;9.23;;
15218;SDS011;15623;53.986;11.676;2023-03-09T03:11:03;16.03;;;9.67;;
15218;SDS011;15623;53.986;11.676;2023-03-09T03:13:39;17.93;;;9.70;;
15218;SDS011;15623;53.986;11.676;2023-03-09T03:16:08;13.07;;;8.97;;
15218;SDS011;15623;53.986;11.676;2023-03-09T03:18:35;16.43;;;10.27;;
15218;SDS011;15623;53.986;11.676;2023-03-09T03:21:03;16.50;;;10.30;;
15218;SDS011;15623;53.986;11.676;2023-03-09T03:23:39;15.67;;;10.73;;
15218;SDS011;15623;53.986;11.676;2023-03-09T03:26:08;19.30;;;10.60;;
15218;SDS011;15623;53.986;11.676;2023-03-09T03:28:39;16.73;;;10.70;;
15218;SDS011;15623;53.986;11.676;2023-03-09T03:31:07;19.43;;;10.13;;
15218;SDS011;15623;53.986;11.676;2023-03-09T03:33:36;21.27;;;10.93;;
15218;SDS011;15623;53.986;11.676;2023-03-09T03:36:15;18.70;;;11.10;;
15218;SDS011;15623;53.986;11.676;2023-03-09T03:38:46;19.27;;;11.57;;
15218;SDS011;15623;53.986;11.676;2023-03-09T03:41:15;20.70;;;11.10;;
15218;SDS011;15623;53.986;11.676;2023-03-09T03:43:51;17.90;;;12.03;;
15218;SDS011;15623;53.986;11.676;2023-03-09T03:46:24;21.13;;;12.23;;
15218;SDS011;15623;53.986;11.676;2023-03-09T03:48:53;18.57;;;12.50;;
15218;SDS011;15623;53.986;11.676;2023-03-09T03:51:22;17.47;;;11.73;;
15218;SDS011;15623;53.986;11.676;2023-03-09T03:53:49;17.17;;;11.40;;
15218;SDS011;15623;53.986;11.676;2023-03-09T03:56:18;20.63;;;11.53;;
15218;SDS011;15623;53.986;11.676;2023-03-09T03:58:45;17.80;;;10.63;;
15218;SDS011;15623;53.986;11.676;2023-03-09T04:01:15;17.47;;;11.10;;
15218;SDS011;15623;53.986;11.676;2023-03-09T04:03:45;19.63;;;11.17;;
15218;SDS011;15623;53.986;11.676;2023-03-09T04:06:18;17.53;;;10.87;;
15218;SDS011;15623;53.986;11.676;2023-03-09T04:08:48;16.87;;;11.30;;
15218;SDS011;15623;53.986;11.676;2023-03-09T04:11:15;19.00;;;10.93;;
15218;SDS011;15623;53.986;11.676;2023-03-09T04:13:45;15.87;;;10.47;;
15218;SDS011;15623;53.986;11.676;2023-03-09T04:16:16;18.43;;;11.40;;
15218;SDS011;15623;53.986;11.676;2023-03-09T04:18:45;19.60;;;11.83;;
15218;SDS011;15623;53.986;11.676;2023-03-09T04:21:13;19.73;;;11.47;;
15218;SDS011;15623;53.986;11.676;2023-03-09T04:23:54;23.10;;;12.20;;
15218;SDS011;15623;53.986;11.676;2023-03-09T04:26:24;18.07;;;10.93;;
15218;SDS011;15623;53.986;11.676;2023-03-09T04:28:58;19.23;;;10.33;;
15218;SDS011;15623;53.986;11.676;2023-03-09T04:34:13;16.17;;;10.27;;
15218;SDS011;15623;53.986;11.676;2023-03-09T04:36:42;17.47;;;11.00;;
15218;SDS011;15623;53.986;11.676;2023-03-09T04:39:11;16.27;;;10.40;;
15218;SDS011;15623;53.986;11.676;2023-03-09T04:44:16;14.37;;;10.50;;
15218;SDS011;15623;53.986;11.676;2023-03-09T04:46:51;16.73;;;10.00;;
15218;SDS011;15623;53.986;11.676;2023-03-09T04:51:57;13.63;;;9.37;;
15218;SDS011;15623;53.986;11.676;2023-03-09T04:56:57;17.57;;;9.77;;
15218;SDS011;15623;53.986;11.676;2023-03-09T05:02:12;14.50;;;9.77;;
15218;SDS011;15623;53.986;11.676;2023-03-09T05:04:40;17.83;;;10.53;;
15218;SDS011;15623;53.986;11.676;2023-03-09T05:07:18;15.17;;;9.47;;
15218;SDS011;15623;53.986;11.676;2023-03-09T05:09:47;15.43;;;9.43;;
15218;SDS011;15623;53.986;11.676;2023-03-09T05:12:15;13.63;;;9.20;;
15218;SDS011;15623;53.986;11.676;2023-03-09T05:14:44;14.30;;;9.63;;
15218;SDS011;15623;53.986;11.676;2023-03-09T05:17:11;14.50;;;9.57;;
15218;SDS011;15623;53.986;11.676;2023-03-09T05:19:40;13.97;;;9.30;;
15218;SDS011;15623;53.986;11.676;2023-03-09T05:22:07;16.13;;;10.10;;
15218;SDS011;15623;53.986;11.676;2023-03-09T05:24:38;12.00;;;9.50;;
15218;SDS011;15623;53.986;11.676;2023-03-09T05:27:09;15.40;;;9.50;;
15218;SDS011;15623;53.986;11.676;2023-03-09T05:29:50;17.00;;;9.47;;
15218;SDS011;15623;53.986;11.676;2023-03-09T05:32:21;15.13;;;8.57;;
15218;SDS011;15623;53.986;11.676;2023-03-09T05:34:48;16.63;;;9.83;;
15218;SDS011;15623;53.986;11.676;2023-03-09T05:37:17;14.03;;;9.47;;
15218;SDS011;15623;53.986;11.676;2023-03-09T05:39:51;13.13;;;9.70;;
15218;SDS011;15623;53.986;11.676;2023-03-09T05:42:19;17.17;;;9.37;;
15218;SDS011;15623;53.986;11.676;2023-03-09T05:52:53;16.80;;;10.07;;
15218;SDS011;15623;53.986;11.676;2023-03-09T05:55:28;18.83;;;11.10;;
15218;SDS011;15623;53.986;11.676;2023-03-09T05:57:56;27.07;;;13.27;;
15218;SDS011;15623;53.986;11.676;2023-03-09T06:03:04;17.37;;;10.90;;
15218;SDS011;15623;53.986;11.676;2023-03-09T06:05:43;16.83;;;10.33;;
15218;SDS011;15623;53.986;11.676;2023-03-09T06:08:12;19.13;;;10.57;;
15218;SDS011;15623;53.986;11.676;2023-03-09T06:10:42;19.17;;;10.87;;
15218;SDS011;15623;53.986;11.676;2023-03-09T06:13:11;16.67;;;10.63;;
15218;SDS011;15623;53.986;11.676;2023-03-09T06:15:47;18.00;;;11.20;;
15218;SDS011;15623;53.986;11.676;2023-03-09T06:18:15;19.40;;;12.10;;
15218;SDS011;15623;53.986;11.676;2023-03-09T06:20:43;20.50;;;12.57;;
15218;SDS011;15623;53.986;11.676;2023-03-09T06:23:11;21.63;;;11.97;;
15218;SDS011;15623;53.986;11.676;2023-03-09T06:30:58;19.03;;;12.20;;
15218;SDS011;15623;53.986;11.676;2023-03-09T06:33:36;18.53;;;10.83;;
15218;SDS011;15623;53.986;11.676;2023-03-09T06:36:04;18.73;;;10.87;;
15218;SDS011;15623;53.986;11.676;2023-03-09T06:38:39;17.67;;;11.03;;
15218;SDS011;15623;53.986;11.676;2023-03-09T06:41:09;19.10;;;10.90;;
15218;SDS011;15623;53.986;11.676;2023-03-09T06:43:39;15.63;;;10.53;;
15218;SDS011;15623;53.986;11.676;2023-03-09T06:46:15;17.47;;;11.23;;
15218;SDS011;15623;53.986;11.676;2023-03-09T06:48:45;16.57;;;10.83;;
15218;SDS011;15623;53.986;11.676;2023-03-09T06:51:20;23.57;;;11.73;;
15218;SDS011;15623;53.986;11.676;2023-03-09T06:53:49;20.47;;;11.97;;
15218;SDS011;15623;53.986;11.676;2023-03-09T06:56:18;16.07;;;10.50;;
15218;SDS011;15623;53.986;11.676;2023-03-09T06:58:52;13.23;;;9.77;;
15218;SDS011;15623;53.986;11.676;2023-03-09T07:01:23;16.50;;;10.37;;
15218;SDS011;15623;53.986;11.676;2023-03-09T07:03:53;14.20;;;9.80;;
15218;SDS011;15623;53.986;11.676;2023-03-09T07:06:22;16.60;;;10.60;;
15218;SDS011;15623;53.986;11.676;2023-03-09T07:08:54;20.10;;;10.87;;
15218;SDS011;15623;53.986;11.676;2023-03-09T07:11:24;16.43;;;9.87;;
15218;SDS011;15623;53.986;11.676;2023-03-09T07:13:53;15.37;;;10.33;;
15218;SDS011;15623;53.986;11.676;2023-03-09T07:16:28;13.73;;;9.63;;
15218;SDS011;15623;53.986;11.676;2023-03-09T07:18:57;16.33;;;9.67;;
15218;SDS011;15623;53.986;11.676;2023-03-09T07:21:25;14.17;;;9.87;;
15218;SDS011;15623;53.986;11.676;2023-03-09T07:23:52;15.20;;;10.00;;
15218;SDS011;15623;53.986;11.676;2023-03-09T07:26:21;12.90;;;9.20;;
15218;SDS011;15623;53.986;11.676;2023-03-09T07:28:50;14.30;;;9.27;;
15218;SDS011;15623;53.986;11.676;2023-03-09T07:31:18;14.83;;;9.87;;
15218;SDS011;15623;53.986;11.676;2023-03-09T07:33:49;13.90;;;9.10;;
15218;SDS011;15623;53.986;11.676;2023-03-09T07:36:16;12.13;;;9.27;;
15218;SDS011;15623;53.986;11.676;2023-03-09T07:38:43;11.60;;;8.20;;
15218;SDS011;15623;53.986;11.676;2023-03-09T07:41:12;10.10;;;8.57;;
15218;SDS011;15623;53.986;11.676;2023-03-09T07:43:57;12.13;;;8.87;;
15218;SDS011;15623;53.986;11.676;2023-03-09T07:46:26;12.97;;;8.97;;
15218;SDS011;15623;53.986;11.676;2023-03-09T07:48:57;12.03;;;9.10;;
15218;SDS011;15623;53.986;11.676;2023-03-09T07:54:18;14.47;;;8.83;;
15218;SDS011;15623;53.986;11.676;2023-03-09T07:56:47;13.63;;;9.20;;
15218;SDS011;15623;53.986;11.676;2023-03-09T07:59:23;9.60;;;8.33;;
15218;SDS011;15623;53.986;11.676;2023-03-09T08:07:26;16.30;;;9.80;;
15218;SDS011;15623;53.986;11.676;2023-03-09T08:12:33;13.60;;;9.27;;
15218;SDS011;15623;53.986;11.676;2023-03-09T08:15:00;11.93;;;8.73;;
15218;SDS011;15623;53.986;11.676;2023-03-09T08:17:41;10.27;;;9.27;;
15218;SDS011;15623;53.986;11.676;2023-03-09T08:20:15;10.77;;;9.13;;
15218;SDS011;15623;53.986;11.676;2023-03-09T08:22:44;12.03;;;9.53;;
15218;SDS011;15623;53.986;11.676;2023-03-09T08:25:13;9.97;;;8.77;;
15218;SDS011;15623;53.986;11.676;2023-03-09T08:27:57;9.40;;;8.37;;
15218;SDS011;15623;53.986;11.676;2023-03-09T08:30:25;12.67;;;8.97;;
15218;SDS011;15623;53.986;11.676;2023-03-09T08:32:54;10.70;;;8.50;;
15218;SDS011;15623;53.986;11.676;2023-03-09T08:35:30;10.20;;;8.63;;
15218;SDS011;15623;53.986;11.676;2023-03-09T08:38:01;12.90;;;8.90;;
15218;SDS011;15623;53.986;11.676;2023-03-09T08:40:39;16.73;;;9.73;;
15218;SDS011;15623;53.986;11.676;2023-03-09T08:43:15;12.13;;;8.80;;
15218;SDS011;15623;53.986;11.676;2023-03-09T08:45:47;9.87;;;8.43;;
15218;SDS011;15623;53.986;11.676;2023-03-09T08:48:22;11.13;;;8.87;;
15218;SDS011;15623;53.986;11.676;2023-03-09T08:50:51;11.17;;;9.10;;
15218;SDS011;15623;53.986;11.676;2023-03-09T08:53:24;10.93;;;9.03;;
15218;SDS011;15623;53.986;11.676;2023-03-09T08:56:01;11.40;;;9.43;;
15218;SDS011;15623;53.986;11.676;2023-03-09T08:58:34;12.10;;;7.90;;
15218;SDS011;15623;53.986;11.676;2023-03-09T09:03:39;13.03;;;8.97;;
15218;SDS011;15623;53.986;11.676;2023-03-09T09:08:44;12.27;;;9.37;;
15218;SDS011;15623;53.986;11.676;2023-03-09T09:11:21;13.63;;;8.67;;
15218;SDS011;15623;53.986;11.676;2023-03-09T09:13:50;9.60;;;8.60;;
15218;SDS011;15623;53.986;11.676;2023-03-09T09:16:21;32.97;;;14.03;;
15218;SDS011;15623;53.986;11.676;2023-03-09T09:18:49;17.20;;;10.27;;
15218;SDS011;15623;53.986;11.676;2023-03-09T09:21:18;9.93;;;7.83;;
15218;SDS011;15623;53.986;11.676;2023-03-09T09:23:56;10.10;;;7.80;;
15218;SDS011;15623;53.986;11.676;2023-03-09T09:26:23;12.23;;;7.90;;
15218;SDS011;15623;53.986;11.676;2023-03-09T09:28:59;8.13;;;7.43;;
15218;SDS011;15623;53.986;11.676;2023-03-09T09:31:28;7.93;;;7.17;;
15218;SDS011;15623;53.986;11.676;2023-03-09T09:33:56;9.17;;;7.47;;
15218;SDS011;15623;53.986;11.676;2023-03-09T09:36:23;8.13;;;6.80;;
15218;SDS011;15623;53.986;11.676;2023-03-09T09:38:52;9.20;;;7.83;;
15218;SDS011;15623;53.986;11.676;2023-03-09T09:41:37;8.10;;;7.30;;
15218;SDS011;15623;53.986;11.676;2023-03-09T09:44:10;8.63;;;6.53;;
15218;SDS011;15623;53.986;11.676;2023-03-09T09:46:47;7.47;;;6.87;;
15218;SDS011;15623;53.986;11.676;2023-03-09T09:49:18;7.30;;;6.53;;
15218;SDS011;15623;53.986;11.676;2023-03-09T09:52:00;7.87;;;6.87;;
15218;SDS011;15623;53.986;11.676;2023-03-09T09:54:36;9.10;;;6.83;;
15218;SDS011;15623;53.986;11.676;2023-03-09T09:57:17;8.03;;;7.23;;
15218;SDS011;15623;53.986;11.676;2023-03-09T09:59:51;8.00;;;7.20;;
15218;SDS011;15623;53.986;11.676;2023-03-09T10:02:28;9.57;;;7.60;;
15218;SDS011;15623;53.986;11.676;2023-03-09T10:05:02;8.70;;;6.97;;
15218;SDS011;15623;53.986;11.676;2023-03-09T10:07:30;7.07;;;6.47;;
15218;SDS011;15623;53.986;11.676;2023-03-09T10:10:00;7.97;;;7.17;;
15218;SDS011;15623;53.986;11.676;2023-03-09T10:12:32;8.50;;;7.13;;
15218;SDS011;15623;53.986;11.676;2023-03-09T10:15:10;7.10;;;6.50;;
15218;SDS011;15623;53.986;11.676;2023-03-09T10:17:41;7.20;;;6.50;;
15218;SDS011;15623;53.986;11.676;2023-03-09T10:20:22;11.17;;;6.50;;
15218;SDS011;15623;53.986;11.676;2023-03-09T10:22:51;6.73;;;6.07;;
15218;SDS011;15623;53.986;11.676;2023-03-09T10:27:57;7.30;;;6.37;;
15218;SDS011;15623;53.986;11.676;2023-03-09T10:30:29;6.87;;;6.27;;
15218;SDS011;15623;53.986;11.676;2023-03-09T10:33:03;6.67;;;6.00;;
15218;SDS011;15623;53.986;11.676;2023-03-09T10:35:35;6.27;;;5.73;;
15218;SDS011;15623;53.986;11.676;2023-03-09T10:38:08;6.70;;;5.90;;
15218;SDS011;15623;53.986;11.676;2023-03-09T10:40:37;7.50;;;6.77;;
15218;SDS011;15623;53.986;11.676;2023-03-09T10:43:17;7.63;;;6.33;;
15218;SDS011;15623;53.986;11.676;2023-03-09T10:45:49;8.40;;;6.60;;
15218;SDS011;15623;53.986;11.676;2023-03-09T10:48:21;6.43;;;5.83;;
15218;SDS011;15623;53.986;11.676;2023-03-09T10:53:30;6.83;;;6.20;;
15218;SDS011;15623;53.986;11.676;2023-03-09T10:56:04;7.53;;;6.40;;
15218;SDS011;15623;53.986;11.676;2023-03-09T10:58:36;6.33;;;5.70;;
15218;SDS011;15623;53.986;11.676;2023-03-09T11:01:22;7.57;;;5.87;;
15218;SDS011;15623;53.986;11.676;2023-03-09T11:03:56;7.13;;;6.07;;
15218;SDS011;15623;53.986;11.676;2023-03-09T11:06:40;18.43;;;10.40;;
15218;SDS011;15623;53.986;11.676;2023-03-09T11:09:10;11.13;;;7.10;;
15218;SDS011;15623;53.986;11.676;2023-03-09T11:11:40;15.40;;;8.20;;
15218;SDS011;15623;53.986;11.676;2023-03-09T11:16:59;5.93;;;5.43;;
15218;SDS011;15623;53.986;11.676;2023-03-09T11:19:35;6.20;;;5.70;;
15218;SDS011;15623;53.986;11.676;2023-03-09T11:22:05;6.50;;;5.27;;
15218;SDS011;15623;53.986;11.676;2023-03-09T11:24:35;7.53;;;5.80;;
15218;SDS011;15623;53.986;11.676;2023-03-09T11:27:14;7.03;;;5.83;;
15218;SDS011;15623;53.986;11.676;2023-03-09T11:32:37;5.93;;;5.43;;
15218;SDS011;15623;53.986;11.676;2023-03-09T11:35:12;6.63;;;5.33;;
15218;SDS011;15623;53.986;11.676;2023-03-09T11:40:29;5.33;;;4.90;;
15218;SDS011;15623;53.986;11.676;2023-03-09T11:43:07;5.50;;;5.00;;
15218;SDS011;15623;53.986;11.676;2023-03-09T11:45:41;20.30;;;9.80;;
15218;SDS011;15623;53.986;11.676;2023-03-09T11:48:15;5.27;;;4.70;;
15218;SDS011;15623;53.986;11.676;2023-03-09T11:50:52;4.77;;;4.37;;
15218;SDS011;15623;53.986;11.676;2023-03-09T11:53:21;5.10;;;4.70;;
15218;SDS011;15623;53.986;11.676;2023-03-09T11:55:52;5.10;;;4.60;;
15218;SDS011;15623;53.986;11.676;2023-03-09T12:00:55;5.23;;;4.73;;
15218;SDS011;15623;53.986;11.676;2023-03-09T12:03:29;5.30;;;4.90;;
15218;SDS011;15623;53.986;11.676;2023-03-09T12:08:41;5.37;;;4.87;;
15218;SDS011;15623;53.986;11.676;2023-03-09T12:11:12;4.70;;;4.07;;
15218;SDS011;15623;53.986;11.676;2023-03-09T12:13:43;4.43;;;4.03;;
15218;SDS011;15623;53.986;11.676;2023-03-09T12:16:18;4.80;;;3.77;;
15218;SDS011;15623;53.986;11.676;2023-03-09T12:18:58;4.77;;;4.37;;
15218;SDS011;15623;53.986;11.676;2023-03-09T12:21:31;4.43;;;4.03;;
15218;SDS011;15623;53.986;11.676;2023-03-09T12:24:03;5.50;;;5.10;;
15218;SDS011;15623;53.986;11.676;2023-03-09T12:26:41;4.30;;;4.00;;
15218;SDS011;15623;53.986;11.676;2023-03-09T12:29:18;4.80;;;4.40;;
15218;SDS011;15623;53.986;11.676;2023-03-09T12:34:41;5.53;;;5.03;;
15218;SDS011;15623;53.986;11.676;2023-03-09T12:40:18;4.90;;;4.40;;
15218;SDS011;15623;53.986;11.676;2023-03-09T12:42:54;7.90;;;4.47;;
15218;SDS011;15623;53.986;11.676;2023-03-09T12:45:23;5.60;;;4.70;;
15218;SDS011;15623;53.986;11.676;2023-03-09T12:47:52;5.27;;;4.77;;
15218;SDS011;15623;53.986;11.676;2023-03-09T12:50:25;4.80;;;4.40;;
15218;SDS011;15623;53.986;11.676;2023-03-09T12:52:57;6.00;;;4.70;;
15218;SDS011;15623;53.986;11.676;2023-03-09T12:55:45;5.63;;;5.13;;
15218;SDS011;15623;53.986;11.676;2023-03-09T13:01:27;5.53;;;5.00;;
15218;SDS011;15623;53.986;11.676;2023-03-09T13:04:10;5.03;;;4.63;;
15218;SDS011;15623;53.986;11.676;2023-03-09T13:06:44;6.00;;;5.40;;
15218;SDS011;15623;53.986;11.676;2023-03-09T13:09:22;8.60;;;4.93;;
15218;SDS011;15623;53.986;11.676;2023-03-09T13:12:04;6.53;;;4.80;;
15218;SDS011;15623;53.986;11.676;2023-03-09T13:17:40;5.33;;;4.80;;
15218;SDS011;15623;53.986;11.676;2023-03-09T13:20:17;5.97;;;5.37;;
15218;SDS011;15623;53.986;11.676;2023-03-09T13:22:46;5.90;;;5.30;;
15218;SDS011;15623;53.986;11.676;2023-03-09T13:33:29;6.47;;;5.80;;
15218;SDS011;15623;53.986;11.676;2023-03-09T13:36:08;7.17;;;5.70;;
15218;SDS011;15623;53.986;11.676;2023-03-09T13:38:44;6.37;;;5.73;;
15218;SDS011;15623;53.986;11.676;2023-03-09T13:41:18;6.27;;;5.67;;
15218;SDS011;15623;53.986;11.676;2023-03-09T13:43:47;7.37;;;5.40;;
15218;SDS011;15623;53.986;11.676;2023-03-09T13:46:20;7.17;;;6.10;;
15218;SDS011;15623;53.986;11.676;2023-03-09T13:48:58;6.20;;;5.70;;
15218;SDS011;15623;53.986;11.676;2023-03-09T13:51:40;6.30;;;5.20;;
15218;SDS011;15623;53.986;11.676;2023-03-09T13:54:24;6.00;;;5.50;;
15218;SDS011;15623;53.986;11.676;2023-03-09T13:57:00;6.37;;;5.43;;
15218;SDS011;15623;53.986;11.676;2023-03-09T13:59:41;5.73;;;5.17;;
15218;SDS011;15623;53.986;11.676;2023-03-09T14:02:17;6.43;;;5.60;;
15218;SDS011;15623;53.986;11.676;2023-03-09T14:04:48;6.80;;;6.10;;
15218;SDS011;15623;53.986;11.676;2023-03-09T14:07:17;8.90;;;6.10;;
15218;SDS011;15623;53.986;11.676;2023-03-09T14:09:53;6.70;;;6.10;;
15218;SDS011;15623;53.986;11.676;2023-03-09T14:12:25;7.43;;;6.73;;
15218;SDS011;15623;53.986;11.676;2023-03-09T14:14:53;9.47;;;8.43;;
15218;SDS011;15623;53.986;11.676;2023-03-09T14:17:22;35.63;;;23.27;;
15218;SDS011;15623;53.986;11.676;2023-03-09T14:19:51;12.57;;;10.13;;
15218;SDS011;15623;53.986;11.676;2023-03-09T14:22:26;8.43;;;7.60;;
15218;SDS011;15623;53.986;11.676;2023-03-09T14:27:30;7.87;;;7.07;;
15218;SDS011;15623;53.986;11.676;2023-03-09T14:32:57;10.37;;;7.40;;
15218;SDS011;15623;53.986;11.676;2023-03-09T14:35:29;8.87;;;7.90;;
15218;SDS011;15623;53.986;11.676;2023-03-09T14:38:14;8.40;;;7.40;;
15218;SDS011;15623;53.986;11.676;2023-03-09T14:40:43;11.10;;;8.40;;
15218;SDS011;15623;53.986;11.676;2023-03-09T14:43:26;9.80;;;7.30;;
15218;SDS011;15623;53.986;11.676;2023-03-09T14:48:30;10.40;;;8.73;;
15218;SDS011;15623;53.986;11.676;2023-03-09T14:51:05;9.70;;;8.70;;
15218;SDS011;15623;53.986;11.676;2023-03-09T14:53:35;10.30;;;8.40;;
15218;SDS011;15623;53.986;11.676;2023-03-09T14:56:03;9.07;;;8.17;;
15218;SDS011;15623;53.986;11.676;2023-03-09T15:01:05;8.83;;;8.03;;
15218;SDS011;15623;53.986;11.676;2023-03-09T15:03:37;9.07;;;8.17;;
15218;SDS011;15623;53.986;11.676;2023-03-09T15:06:06;9.50;;;8.60;;
15218;SDS011;15623;53.986;11.676;2023-03-09T15:08:34;9.70;;;8.67;;
15218;SDS011;15623;53.986;11.676;2023-03-09T15:11:03;11.47;;;8.90;;
15218;SDS011;15623;53.986;11.676;2023-03-09T15:16:22;11.93;;;9.40;;
15218;SDS011;15623;53.986;11.676;2023-03-09T15:18:51;15.23;;;9.20;;
15218;SDS011;15623;53.986;11.676;2023-03-09T15:21:25;13.03;;;9.37;;
15218;SDS011;15623;53.986;11.676;2023-03-09T15:23:54;11.23;;;9.70;;
15218;SDS011;15623;53.986;11.676;2023-03-09T15:26:21;11.67;;;9.53;;
15218;SDS011;15623;53.986;11.676;2023-03-09T15:28:49;12.47;;;10.37;;
15218;SDS011;15623;53.986;11.676;2023-03-09T15:31:19;10.77;;;9.67;;
15218;SDS011;15623;53.986;11.676;2023-03-09T15:33:49;11.70;;;9.87;;
15218;SDS011;15623;53.986;11.676;2023-03-09T15:36:16;17.03;;;11.97;;
15218;SDS011;15623;53.986;11.676;2023-03-09T15:38:45;16.37;;;11.50;;
15218;SDS011;15623;53.986;11.676;2023-03-09T15:41:13;15.40;;;12.00;;
15218;SDS011;15623;53.986;11.676;2023-03-09T15:43:41;18.37;;;12.27;;
15218;SDS011;15623;53.986;11.676;2023-03-09T15:46:09;15.00;;;11.63;;
15218;SDS011;15623;53.986;11.676;2023-03-09T15:48:44;16.03;;;11.80;;
15218;SDS011;15623;53.986;11.676;2023-03-09T15:53:50;16.20;;;11.97;;
15218;SDS011;15623;53.986;11.676;2023-03-09T15:56:18;20.00;;;14.70;;
15218;SDS011;15623;53.986;11.676;2023-03-09T15:58:46;27.90;;;18.23;;
15218;SDS011;15623;53.986;11.676;2023-03-09T16:01:18;30.77;;;18.53;;
15218;SDS011;15623;53.986;11.676;2023-03-09T16:03:48;25.70;;;17.23;;
15218;SDS011;15623;53.986;11.676;2023-03-09T16:06:17;17.83;;;13.20;;
15218;SDS011;15623;53.986;11.676;2023-03-09T16:08:47;19.83;;;13.40;;
15218;SDS011;15623;53.986;11.676;2023-03-09T16:11:24;17.60;;;12.73;;
15218;SDS011;15623;53.986;11.676;2023-03-09T16:13:52;18.40;;;13.17;;
15218;SDS011;15623;53.986;11.676;2023-03-09T16:16:20;18.90;;;13.50;;
15218;SDS011;15623;53.986;11.676;2023-03-09T16:19:03;17.97;;;13.50;;
15218;SDS011;15623;53.986;11.676;2023-03-09T16:21:31;17.37;;;12.33;;
15218;SDS011;15623;53.986;11.676;2023-03-09T16:24:13;18.40;;;12.90;;
15218;SDS011;15623;53.986;11.676;2023-03-09T16:29:14;18.17;;;13.03;;
15218;SDS011;15623;53.986;11.676;2023-03-09T16:34:28;17.07;;;13.47;;
15218;SDS011;15623;53.986;11.676;2023-03-09T16:36:56;16.83;;;13.50;;
15218;SDS011;15623;53.986;11.676;2023-03-09T16:39:30;18.77;;;14.13;;
15218;SDS011;15623;53.986;11.676;2023-03-09T16:41:59;19.67;;;13.37;;
15218;SDS011;15623;53.986;11.676;2023-03-09T16:44:26;17.67;;;13.83;;
15218;SDS011;15623;53.986;11.676;2023-03-09T16:49:33;21.40;;;14.30;;
15218;SDS011;15623;53.986;11.676;2023-03-09T16:52:02;18.60;;;13.60;;
15218;SDS011;15623;53.986;11.676;2023-03-09T16:54:30;21.10;;;14.60;;